createdAt,value
2018-11-26T00:00:52.146Z,99.90
2018-11-26T00:03:20.257Z,99.90
2018-11-26T00:05:48.318Z,99.90
2018-11-26T00:08:16.678Z,99.90
2018-11-26T00:10:58.057Z,99.90
2018-11-26T00:13:26.450Z,99.90
2018-11-26T00:15:55.278Z,99.90
2018-11-26T00:18:23.471Z,99.90
2018-11-26T00:20:52.158Z,99.90
2018-11-26T00:23:20.547Z,99.90
2018-11-26T00:25:48.642Z,99.90
2018-11-26T00:28:16.785Z,99.90
2018-11-26T00:30:45.926Z,99.90
2018-11-26T00:33:14.059Z,99.90
2018-11-26T00:35:42.133Z,99.90
2018-11-26T00:38:10.965Z,99.90
2018-11-26T00:40:39.133Z,99.90
2018-11-26T00:43:08.266Z,99.90
2018-11-26T00:45:36.372Z,99.90
2018-11-26T00:48:04.518Z,99.90
2018-11-26T00:50:32.708Z,99.90
2018-11-26T00:53:01.406Z,99.90
2018-11-26T00:55:29.486Z,99.90
2018-11-26T00:57:58.497Z,99.90
2018-11-26T01:00:26.630Z,99.90
2018-11-26T01:02:55.423Z,99.90
2018-11-26T01:05:31.542Z,99.90
2018-11-26T01:07:59.645Z,99.90
2018-11-26T01:10:28.479Z,99.90
2018-11-26T01:12:57.266Z,99.90
2018-11-26T01:15:25.781Z,99.90
2018-11-26T01:17:53.950Z,99.90
2018-11-26T01:20:22.069Z,99.90
2018-11-26T01:22:50.650Z,99.90
2018-11-26T01:25:18.814Z,99.90
2018-11-26T01:27:47.002Z,99.90
2018-11-26T01:30:15.607Z,99.90
2018-11-26T01:32:43.770Z,99.90
2018-11-26T01:35:12.361Z,99.90
2018-11-26T01:37:41.324Z,99.90
2018-11-26T01:40:17.533Z,99.90
2018-11-26T01:42:45.834Z,99.90
2018-11-26T01:45:14.683Z,99.90
2018-11-26T01:47:42.827Z,99.90
2018-11-26T01:50:11.289Z,99.90
2018-11-26T01:52:39.461Z,99.90
2018-11-26T01:55:08.966Z,99.90
2018-11-26T01:57:38.174Z,99.90
2018-11-26T02:00:13.434Z,99.90
2018-11-26T02:02:42.474Z,99.90
2018-11-26T02:05:11.194Z,99.90
2018-11-26T02:07:39.302Z,99.90
2018-11-26T02:10:10.322Z,99.90
2018-11-26T02:12:39.481Z,99.90
2018-11-26T02:15:12.731Z,99.90
2018-11-26T02:21:12.395Z,99.90
2018-11-26T02:23:40.537Z,99.90
2018-11-26T02:26:08.593Z,99.90
2018-11-26T02:28:36.796Z,99.90
2018-11-26T02:31:05.074Z,99.90
2018-11-26T02:33:33.199Z,99.90
2018-11-26T02:36:01.593Z,99.90
2018-11-26T02:38:30.698Z,99.90
2018-11-26T02:40:59.506Z,99.90
2018-11-26T02:43:27.809Z,99.90
2018-11-26T02:45:55.974Z,99.90
2018-11-26T02:48:24.441Z,99.90
2018-11-26T02:50:52.494Z,99.90
2018-11-26T02:53:20.684Z,99.90
2018-11-26T02:55:48.726Z,99.90
2018-11-26T02:58:16.794Z,99.90
2018-11-26T03:00:46.350Z,99.90
2018-11-26T03:03:16.330Z,99.90
2018-11-26T03:05:44.499Z,99.90
2018-11-26T03:08:12.722Z,99.90
2018-11-26T03:10:40.841Z,99.90
2018-11-26T03:13:08.900Z,99.90
2018-11-26T03:15:36.962Z,99.90
2018-11-26T03:18:05.219Z,99.90
2018-11-26T03:20:33.661Z,99.90
2018-11-26T03:23:01.727Z,99.90
2018-11-26T03:25:29.884Z,99.90
2018-11-26T03:27:58.068Z,99.90
2018-11-26T03:30:27.249Z,99.90
2018-11-26T03:32:55.475Z,99.90
2018-11-26T03:35:23.617Z,99.90
2018-11-26T03:37:51.752Z,99.90
2018-11-26T03:40:19.950Z,99.90
2018-11-26T03:42:48.040Z,99.90
2018-11-26T03:45:17.205Z,99.90
2018-11-26T03:47:45.606Z,99.90
2018-11-26T03:50:14.297Z,99.90
2018-11-26T03:52:43.943Z,99.90
2018-11-26T03:55:12.785Z,99.90
2018-11-26T03:57:40.970Z,99.90
2018-11-26T04:00:13.214Z,99.90
2018-11-26T04:02:41.837Z,99.90
2018-11-26T04:05:10.428Z,99.90
2018-11-26T04:07:38.554Z,99.90
2018-11-26T04:10:10.284Z,99.90
2018-11-26T04:12:38.369Z,99.90
2018-11-26T04:15:08.822Z,99.90
2018-11-26T04:17:37.111Z,99.90
2018-11-26T04:20:06.287Z,99.90
2018-11-26T04:22:34.454Z,99.90
2018-11-26T04:25:03.622Z,99.90
2018-11-26T04:27:31.745Z,99.90
2018-11-26T04:29:59.938Z,99.90
2018-11-26T04:32:28.190Z,99.90
2018-11-26T04:34:56.372Z,99.90
2018-11-26T04:37:24.575Z,99.90
2018-11-26T04:39:53.138Z,99.90
2018-11-26T04:42:21.590Z,99.90
2018-11-26T04:44:49.821Z,99.90
2018-11-26T04:47:17.922Z,99.90
2018-11-26T04:49:45.977Z,99.90
2018-11-26T04:52:14.734Z,99.90
2018-11-26T04:54:42.810Z,99.90
2018-11-26T04:57:10.948Z,99.90
2018-11-26T04:59:39.114Z,99.90
2018-11-26T05:02:07.525Z,99.90
2018-11-26T05:04:35.853Z,99.90
2018-11-26T05:07:03.969Z,99.90
2018-11-26T05:09:32.666Z,99.90
2018-11-26T05:12:00.735Z,99.90
2018-11-26T05:14:29.109Z,99.90
2018-11-26T05:16:57.529Z,99.90
2018-11-26T05:19:25.605Z,99.90
2018-11-26T05:21:53.674Z,99.90
2018-11-26T05:24:21.718Z,99.90
2018-11-26T05:26:50.056Z,99.90
2018-11-26T05:29:18.286Z,99.90
2018-11-26T05:31:46.598Z,99.90
2018-11-26T05:34:14.878Z,99.90
2018-11-26T05:36:43.476Z,99.90
2018-11-26T05:39:11.688Z,99.90
2018-11-26T05:41:40.227Z,99.90
2018-11-26T05:44:09.493Z,99.90
2018-11-26T05:46:37.934Z,99.90
2018-11-26T05:49:07.037Z,99.90
2018-11-26T05:51:35.439Z,99.90
2018-11-26T05:54:03.798Z,99.90
2018-11-26T05:56:32.703Z,99.90
2018-11-26T05:59:01.478Z,99.90
2018-11-26T06:01:29.811Z,99.90
2018-11-26T06:03:58.935Z,99.90
2018-11-26T06:06:27.892Z,99.90
2018-11-26T06:08:56.329Z,99.90
2018-11-26T06:11:24.423Z,99.90
2018-11-26T06:13:52.610Z,99.90
2018-11-26T06:16:20.861Z,99.90
2018-11-26T06:18:49.446Z,99.90
2018-11-26T06:21:17.781Z,99.90
2018-11-26T06:23:48.018Z,99.90
2018-11-26T06:26:16.182Z,99.90
2018-11-26T06:28:44.349Z,99.90
2018-11-26T06:31:12.557Z,99.90
2018-11-26T06:33:41.308Z,99.90
2018-11-26T06:36:09.446Z,99.90
2018-11-26T06:38:37.846Z,99.90
2018-11-26T06:41:05.973Z,99.90
2018-11-26T06:43:35.404Z,99.90
2018-11-26T06:46:03.846Z,99.90
2018-11-26T06:48:31.967Z,99.90
2018-11-26T06:51:00.582Z,99.90
2018-11-26T06:53:29.181Z,99.90
2018-11-26T06:55:57.321Z,99.90
2018-11-26T06:58:26.718Z,99.90
2018-11-26T07:00:55.014Z,99.90
2018-11-26T07:03:23.961Z,99.90
2018-11-26T07:05:52.585Z,99.90
2018-11-26T07:08:20.765Z,99.90
2018-11-26T07:10:48.911Z,99.90
2018-11-26T07:13:17.117Z,99.90
2018-11-26T07:15:46.186Z,99.90
2018-11-26T07:18:14.342Z,99.90
2018-11-26T07:20:42.515Z,99.90
2018-11-26T07:23:10.704Z,99.90
2018-11-26T07:25:38.906Z,99.90
2018-11-26T07:28:08.711Z,99.90
2018-11-26T07:30:37.384Z,99.90
2018-11-26T07:33:06.642Z,99.90
2018-11-26T07:35:35.689Z,99.90
2018-11-26T07:38:03.765Z,99.90
2018-11-26T07:40:33.018Z,99.90
2018-11-26T07:43:04.010Z,99.90
2018-11-26T07:45:33.133Z,99.90
2018-11-26T07:48:01.283Z,99.90
2018-11-26T07:50:30.101Z,99.90
2018-11-26T07:52:58.830Z,99.90
2018-11-26T07:55:27.578Z,99.90
2018-11-26T07:57:55.875Z,99.90
2018-11-26T08:00:24.408Z,99.90
2018-11-26T08:02:53.258Z,99.90
2018-11-26T08:05:22.501Z,99.90
2018-11-26T08:07:50.558Z,99.90
2018-11-26T08:10:20.261Z,99.90
2018-11-26T08:12:49.266Z,99.90
2018-11-26T08:15:20.091Z,99.90
2018-11-26T08:17:49.148Z,99.90
2018-11-26T08:20:17.212Z,99.90
2018-11-26T08:22:46.173Z,99.90
2018-11-26T08:25:16.230Z,99.90
2018-11-26T08:27:45.458Z,99.90
2018-11-26T08:30:14.610Z,99.90
2018-11-26T08:32:43.221Z,99.90
2018-11-26T08:35:13.994Z,99.90
2018-11-26T08:37:48.602Z,99.90
2018-11-26T08:40:24.834Z,99.90
2018-11-26T08:43:02.749Z,99.90
2018-11-26T08:45:36.859Z,99.90
2018-11-26T08:48:10.722Z,99.90
2018-11-26T08:50:38.859Z,99.90
2018-11-26T08:53:07.794Z,99.90
2018-11-26T08:55:36.975Z,99.90
2018-11-26T08:58:05.697Z,99.90
2018-11-26T09:00:34.074Z,99.90
2018-11-26T09:03:03.122Z,99.90
2018-11-26T09:05:36.875Z,99.90
2018-11-26T09:08:05.318Z,99.90
2018-11-26T09:10:33.442Z,99.90
2018-11-26T09:13:01.743Z,99.90
2018-11-26T09:15:30.210Z,99.90
2018-11-26T09:17:58.269Z,99.90
2018-11-26T09:20:26.548Z,99.90
2018-11-26T09:22:54.619Z,99.90
2018-11-26T09:25:22.818Z,99.90
2018-11-26T09:27:52.402Z,99.90
2018-11-26T09:30:21.255Z,99.90
2018-11-26T09:32:49.986Z,99.90
2018-11-26T09:35:18.063Z,99.90
2018-11-26T09:37:46.147Z,99.90
2018-11-26T09:40:15.583Z,99.90
2018-11-26T09:42:43.690Z,99.90
2018-11-26T09:45:14.343Z,99.90
2018-11-26T09:47:42.570Z,99.90
2018-11-26T09:50:12.190Z,99.90
2018-11-26T09:52:41.451Z,99.90
2018-11-26T09:55:10.444Z,99.90
2018-11-26T09:57:39.358Z,99.90
2018-11-26T10:00:11.681Z,99.90
2018-11-26T10:02:40.110Z,99.90
2018-11-26T10:05:10.591Z,99.90
2018-11-26T10:08:42.059Z,99.90
2018-11-26T10:11:10.261Z,99.90
2018-11-26T10:13:38.379Z,99.90
2018-11-26T10:16:08.100Z,99.90
2018-11-26T10:18:36.381Z,99.90
2018-11-26T10:21:05.190Z,99.90
2018-11-26T10:23:33.889Z,99.90
2018-11-26T10:26:03.055Z,99.90
2018-11-26T10:28:31.708Z,99.90
2018-11-26T10:31:00.042Z,99.90
2018-11-26T10:33:28.438Z,99.90
2018-11-26T10:35:56.550Z,99.90
2018-11-26T10:38:24.614Z,99.90
2018-11-26T10:40:52.807Z,99.90
2018-11-26T10:43:20.881Z,99.90
2018-11-26T10:45:48.934Z,99.90
2018-11-26T10:48:17.002Z,99.90
2018-11-26T10:50:45.078Z,99.90
2018-11-26T10:53:13.162Z,99.90
2018-11-26T10:55:42.682Z,41.40
2018-11-26T10:58:10.938Z,34.00
2018-11-26T11:00:40.819Z,43.60
2018-11-26T11:03:10.090Z,54.30
2018-11-26T11:05:38.838Z,62.60
2018-11-26T11:08:08.397Z,68.90
2018-11-26T11:10:36.962Z,70.60
2018-11-26T11:13:05.810Z,72.20
2018-11-26T11:15:34.077Z,70.00
2018-11-26T11:18:02.735Z,71.10
2018-11-26T11:20:30.993Z,71.50
2018-11-26T11:22:59.082Z,72.60
2018-11-26T11:25:27.221Z,73.20
2018-11-26T11:27:56.463Z,73.50
2018-11-26T11:30:25.723Z,73.90
2018-11-26T11:32:53.971Z,75.60
2018-11-26T11:35:22.495Z,73.80
2018-11-26T11:37:52.126Z,74.50
2018-11-26T11:40:23.687Z,73.50
2018-11-26T11:42:52.816Z,73.00
2018-11-26T11:45:21.343Z,74.40
2018-11-26T11:47:49.780Z,74.00
2018-11-26T11:50:19.328Z,75.30
2018-11-26T11:52:48.557Z,74.20
2018-11-26T11:55:18.697Z,72.80
2018-11-26T11:57:47.007Z,73.20
2018-11-26T12:00:28.405Z,73.10
2018-11-26T12:02:56.675Z,72.70
2018-11-26T12:05:24.859Z,74.60
2018-11-26T12:07:53.115Z,72.10
2018-11-26T12:10:21.199Z,72.20
2018-11-26T12:12:49.576Z,71.20
2018-11-26T12:15:18.239Z,65.80
2018-11-26T12:17:47.902Z,63.70
2018-11-26T12:20:16.555Z,62.00
2018-11-26T12:22:45.059Z,59.60
2018-11-26T12:25:14.636Z,61.10
2018-11-26T12:27:42.803Z,61.20
2018-11-26T12:30:13.058Z,63.70
2018-11-26T12:32:41.855Z,61.10
2018-11-26T12:35:10.781Z,62.50
2018-11-26T12:37:39.372Z,61.00
2018-11-26T12:40:11.864Z,61.60
2018-11-26T12:42:40.083Z,61.20
2018-11-26T12:45:31.083Z,61.60
2018-11-26T12:47:59.223Z,65.30
2018-11-26T12:50:28.312Z,63.90
2018-11-26T12:52:56.787Z,63.60
2018-11-26T12:55:26.019Z,65.60
2018-11-26T12:57:55.309Z,62.10
2018-11-26T13:00:28.454Z,61.00
2018-11-26T13:03:02.039Z,64.30
2018-11-26T13:05:30.247Z,61.20
2018-11-26T13:07:58.322Z,62.10
2018-11-26T13:10:26.714Z,62.60
2018-11-26T13:12:55.243Z,64.70
2018-11-26T13:15:24.920Z,63.90
2018-11-26T13:17:53.419Z,61.20
2018-11-26T13:20:24.543Z,63.80
2018-11-26T13:22:54.159Z,61.50
2018-11-26T13:25:25.763Z,63.20
2018-11-26T13:27:55.207Z,63.90
2018-11-26T13:30:26.329Z,64.90
2018-11-26T13:32:55.784Z,65.30
2018-11-26T13:35:24.110Z,64.20
2018-11-26T13:37:52.144Z,64.60
2018-11-26T13:40:21.173Z,64.30
2018-11-26T13:42:49.866Z,63.90
2018-11-26T13:45:20.163Z,65.30
2018-11-26T13:47:48.387Z,65.60
2018-11-26T13:50:19.427Z,65.30
2018-11-26T13:52:47.743Z,66.50
2018-11-26T13:55:16.643Z,67.80
2018-11-26T13:57:44.747Z,68.20
2018-11-26T14:00:14.110Z,66.70
2018-11-26T14:02:42.683Z,66.30
2018-11-26T14:05:12.368Z,66.80
2018-11-26T14:07:40.763Z,67.30
2018-11-26T14:10:15.407Z,67.20
2018-11-26T14:12:44.503Z,67.50
2018-11-26T14:15:13.680Z,68.00
2018-11-26T14:17:41.751Z,68.30
2018-11-26T14:20:12.924Z,68.10
2018-11-26T14:22:41.182Z,67.90
2018-11-26T14:25:14.432Z,68.40
2018-11-26T14:27:43.387Z,69.00
2018-11-26T14:30:15.611Z,69.40
2018-11-26T14:32:44.005Z,70.20
2018-11-26T14:35:12.217Z,70.50
2018-11-26T14:37:40.332Z,70.40
2018-11-26T14:40:13.258Z,70.00
2018-11-26T14:42:41.672Z,70.80
2018-11-26T14:45:11.139Z,70.60
2018-11-26T14:47:39.792Z,70.50
2018-11-26T14:50:11.364Z,70.70
2018-11-26T14:52:39.711Z,71.20
2018-11-26T14:55:10.711Z,71.60
2018-11-26T14:57:38.991Z,71.80
2018-11-26T15:00:11.247Z,71.90
2018-11-26T15:02:40.127Z,72.40
2018-11-26T15:05:08.657Z,72.40
2018-11-26T15:07:37.547Z,72.10
2018-11-26T15:10:09.984Z,72.20
2018-11-26T15:12:38.121Z,72.40
2018-11-26T15:15:11.231Z,72.80
2018-11-26T15:17:41.022Z,72.80
2018-11-26T15:20:10.835Z,72.90
2018-11-26T15:22:39.000Z,72.80
2018-11-26T15:25:09.883Z,73.30
2018-11-26T15:27:38.703Z,73.20
2018-11-26T15:30:10.584Z,73.10
2018-11-26T15:32:38.844Z,73.70
2018-11-26T15:35:08.673Z,73.80
2018-11-26T15:37:36.835Z,74.10
2018-11-26T15:40:06.723Z,73.90
2018-11-26T15:42:35.796Z,74.20
2018-11-26T15:45:04.870Z,74.00
2018-11-26T15:47:32.977Z,74.20
2018-11-26T15:50:01.520Z,74.10
2018-11-26T15:52:30.476Z,73.90
2018-11-26T15:54:58.567Z,74.40
2018-11-26T15:57:26.775Z,74.30
2018-11-26T15:59:54.996Z,74.60
2018-11-26T16:02:23.579Z,75.00
2018-11-26T16:04:51.792Z,75.80
2018-11-26T16:07:20.428Z,76.40
2018-11-26T16:09:49.352Z,77.20
2018-11-26T16:12:18.072Z,77.60
2018-11-26T16:14:46.124Z,78.90
2018-11-26T16:17:14.339Z,79.10
2018-11-26T16:19:42.720Z,79.40
2018-11-26T16:22:11.639Z,79.50
2018-11-26T16:24:40.350Z,79.10
2018-11-26T16:27:08.425Z,79.00
2018-11-26T16:29:37.277Z,79.20
2018-11-26T16:32:05.623Z,79.30
2018-11-26T16:34:33.831Z,80.00
2018-11-26T16:37:03.135Z,80.10
2018-11-26T16:39:31.323Z,80.40
2018-11-26T16:41:59.455Z,80.70
2018-11-26T16:44:28.298Z,81.20
2018-11-26T16:46:57.191Z,81.50
2018-11-26T16:49:25.521Z,81.40
2018-11-26T16:51:53.851Z,81.30
2018-11-26T16:54:22.191Z,80.90
2018-11-26T16:56:50.391Z,80.40
2018-11-26T16:59:18.524Z,80.50
2018-11-26T17:01:46.800Z,80.30
2018-11-26T17:04:15.003Z,80.10
2018-11-26T17:06:43.949Z,79.90
2018-11-26T17:09:12.028Z,79.80
2018-11-26T17:11:40.291Z,79.00
2018-11-26T17:14:08.530Z,79.70
2018-11-26T17:16:38.953Z,80.30
2018-11-26T17:19:07.679Z,80.50
2018-11-26T17:21:36.295Z,80.80
2018-11-26T17:24:04.924Z,81.60
2018-11-26T17:26:33.060Z,81.20
2018-11-26T17:29:01.563Z,81.00
2018-11-26T17:31:30.159Z,80.80
2018-11-26T17:34:01.168Z,81.50
2018-11-26T17:36:29.659Z,81.80
2018-11-26T17:38:57.831Z,82.40
2018-11-26T17:41:26.140Z,83.10
2018-11-26T17:43:54.503Z,83.20
2018-11-26T17:46:23.203Z,83.70
2018-11-26T17:48:52.267Z,84.20
2018-11-26T17:51:20.567Z,84.40
2018-11-26T17:53:48.687Z,84.20
2018-11-26T17:56:17.483Z,84.10
2018-11-26T17:58:46.657Z,83.80
2018-11-26T18:01:19.739Z,83.60
2018-11-26T18:03:48.411Z,83.20
2018-11-26T18:06:16.529Z,82.70
2018-11-26T18:08:45.064Z,83.10
2018-11-26T18:11:13.431Z,83.20
2018-11-26T18:13:41.561Z,83.70
2018-11-26T18:16:09.639Z,84.20
2018-11-26T18:18:38.046Z,85.00
2018-11-26T18:21:06.308Z,85.00
2018-11-26T18:23:34.480Z,85.20
2018-11-26T18:26:02.684Z,85.30
2018-11-26T18:28:30.900Z,85.00
2018-11-26T18:30:59.068Z,84.90
2018-11-26T18:33:27.220Z,85.90
2018-11-26T18:35:55.599Z,85.50
2018-11-26T18:38:23.691Z,85.40
2018-11-26T18:40:52.935Z,85.60
2018-11-26T18:43:21.439Z,85.90
2018-11-26T18:45:49.492Z,86.40
2018-11-26T18:48:17.562Z,86.40
2018-11-26T18:50:45.631Z,86.80
2018-11-26T18:53:13.683Z,86.70
2018-11-26T18:55:42.599Z,86.20
2018-11-26T18:58:10.662Z,85.90
2018-11-26T19:00:42.675Z,85.70
2018-11-26T19:03:10.740Z,85.90
2018-11-26T19:05:38.796Z,85.80
2018-11-26T19:08:07.201Z,85.60
2018-11-26T19:10:36.905Z,85.60
2018-11-26T19:13:14.892Z,85.80
2018-11-26T19:15:44.776Z,86.00
2018-11-26T19:18:19.413Z,86.80
2018-11-26T19:20:47.468Z,86.80
2018-11-26T19:23:15.527Z,87.30
2018-11-26T19:25:44.074Z,87.80
2018-11-26T19:28:12.181Z,87.60
2018-11-26T19:30:41.399Z,87.60
2018-11-26T19:33:10.215Z,87.80
2018-11-26T19:35:38.695Z,87.80
2018-11-26T19:38:07.515Z,87.90
2018-11-26T19:40:36.772Z,87.90
2018-11-26T19:43:05.244Z,88.10
2018-11-26T19:45:33.391Z,88.10
2018-11-26T19:48:01.635Z,88.00
2018-11-26T19:50:30.228Z,88.10
2018-11-26T19:52:58.227Z,88.10
2018-11-26T19:55:27.623Z,88.10
2018-11-26T19:57:57.147Z,87.90
2018-11-26T20:00:28.759Z,88.20
2018-11-26T20:03:17.647Z,88.30
2018-11-26T20:05:57.750Z,88.30
2018-11-26T20:08:26.353Z,88.20
2018-11-26T20:10:55.059Z,88.40
2018-11-26T20:13:23.215Z,88.70
2018-11-26T20:15:52.874Z,88.90
2018-11-26T20:18:20.631Z,88.80
2018-11-26T20:20:48.835Z,88.30
2018-11-26T20:23:17.185Z,88.40
2018-11-26T20:25:46.189Z,89.40
2018-11-26T20:28:13.403Z,88.50
2018-11-26T20:30:42.507Z,88.60
2018-11-26T20:33:12.059Z,88.90
2018-11-26T20:35:40.719Z,88.80
2018-11-26T20:38:10.479Z,89.30
2018-11-26T20:40:40.011Z,88.60
2018-11-26T20:43:11.615Z,88.70
2018-11-26T20:45:41.758Z,88.70
2018-11-26T20:48:10.290Z,88.60
2018-11-26T20:50:40.079Z,88.20
2018-11-26T20:53:08.283Z,88.30
2018-11-26T20:55:36.369Z,88.40
2018-11-26T20:58:04.583Z,88.30
2018-11-26T21:00:33.867Z,88.70
2018-11-26T21:03:07.878Z,88.90
2018-11-26T21:05:36.824Z,89.30
2018-11-26T21:08:05.008Z,89.50
2018-11-26T21:10:33.487Z,89.80
2018-11-26T21:13:01.546Z,90.00
2018-11-26T21:15:30.196Z,90.10
2018-11-26T21:17:59.296Z,89.90
2018-11-26T21:20:29.185Z,90.00
2018-11-26T21:22:57.950Z,90.30
2018-11-26T21:25:26.272Z,90.30
2018-11-26T21:27:54.458Z,90.30
2018-11-26T21:30:22.543Z,90.40
2018-11-26T21:32:50.912Z,90.50
2018-11-26T21:35:19.646Z,90.50
2018-11-26T21:37:49.014Z,90.50
2018-11-26T21:40:20.452Z,90.60
2018-11-26T21:42:46.556Z,90.70
2018-11-26T21:45:17.443Z,90.60
2018-11-26T21:47:45.943Z,90.80
2018-11-26T21:50:14.755Z,90.90
2018-11-26T21:52:42.932Z,90.90
2018-11-26T21:55:12.387Z,90.80
2018-11-26T21:57:40.875Z,90.80
2018-11-26T22:00:26.990Z,90.90
2018-11-26T22:02:55.931Z,90.60
2018-11-26T22:05:24.455Z,91.00
2018-11-26T22:07:53.579Z,91.20
2018-11-26T22:10:23.137Z,91.30
2018-11-26T22:12:53.275Z,91.20
2018-11-26T22:15:22.247Z,91.20
2018-11-26T22:17:50.970Z,91.20
2018-11-26T22:20:21.418Z,91.40
2018-11-26T22:22:49.472Z,91.40
2018-11-26T22:25:19.248Z,91.30
2018-11-26T22:27:48.465Z,91.40
2018-11-26T22:30:23.582Z,91.40
2018-11-26T22:32:51.710Z,91.40
2018-11-26T22:35:20.428Z,91.50
2018-11-26T22:37:49.123Z,91.40
2018-11-26T22:40:18.458Z,91.40
2018-11-26T22:42:46.636Z,91.40
2018-11-26T22:45:17.374Z,91.60
2018-11-26T22:47:50.168Z,91.60
2018-11-26T22:50:20.175Z,91.70
2018-11-26T22:52:48.924Z,91.70
2018-11-26T22:55:17.864Z,91.80
2018-11-26T22:57:46.095Z,91.90
2018-11-26T23:00:25.315Z,91.90
2018-11-26T23:03:00.680Z,91.80
2018-11-26T23:05:29.137Z,91.80
2018-11-26T23:07:57.576Z,91.70
2018-11-26T23:10:25.977Z,91.70
2018-11-26T23:12:54.301Z,91.70
2018-11-26T23:15:22.457Z,91.80
2018-11-26T23:17:50.613Z,91.80
2018-11-26T23:20:19.560Z,91.70
2018-11-26T23:22:47.624Z,91.80
2018-11-26T23:25:16.931Z,91.70
2018-11-26T23:27:45.552Z,91.70
2018-11-26T23:30:23.591Z,91.60
2018-11-26T23:32:54.976Z,91.80
2018-11-26T23:35:23.151Z,91.80
2018-11-26T23:37:51.234Z,91.90
2018-11-26T23:40:19.439Z,91.90
2018-11-26T23:42:47.578Z,91.90
2018-11-26T23:45:18.802Z,92.00
2018-11-26T23:47:46.887Z,92.00
2018-11-26T23:50:15.835Z,92.10
2018-11-26T23:52:44.319Z,92.00
2018-11-26T23:55:13.219Z,92.00
2018-11-26T23:57:41.323Z,91.90
